< Cyclone 200712 2007 Season Cyclone 200716 >
Cyclone 200713 (KARA)
General InformationTrack Information on Google MapsDetailed Wind InformationList of All Images || ResourceGoogle EarthGE AnimationAtom FeedGeoJSON
Detalied Best Track (Time Zone = UTC)
Year Month Day Hour Lat. Long. Pressure (hPa) Wind (kt) Class Image Chart
2007 3 23 06 -16.1 124.5 1005 15 2 Image --
2007 3 23 12 -15.9 123.9 1004 20 2 Image --
2007 3 23 18 -15.7 123.1 1002 25 2 Image --
2007 3 24 00 -15.9 121.7 1000 25 2 Image --
2007 3 24 06 -16.1 120.7 998 25 2 Image --
2007 3 24 12 -16.1 119.3 998 25 2 Image --
2007 3 24 18 -16.2 118.1 998 25 2 Image --
2007 3 25 00 -16.3 117.5 996 30 2 Image --
2007 3 25 06 -16.4 116.8 990 40 3 Image --
2007 3 25 12 -16.5 116.1 982 50 4 Image --
2007 3 25 18 -16.9 115.8 972 60 4 Image --
2007 3 26 00 -17.5 115.4 952 80 5 Image --
2007 3 26 06 -17.9 115.2 926 100 5 Image --
2007 3 26 12 -18.2 115.5 940 90 5 Image --
2007 3 26 18 -18.3 116.1 940 90 5 Image --
2007 3 26 21 -18.3 116.3 934 95 5 Image --
2007 3 27 00 -18.4 116.9 926 100 5 Image --
2007 3 27 03 -18.5 117.4 920 105 5 Image --
2007 3 27 06 -18.6 118.0 926 100 5 Image --
2007 3 27 09 -18.7 118.7 952 80 5 Image --
2007 3 27 12 -18.8 119.6 968 65 5 Image --
2007 3 27 18 -19.3 120.3 982 50 4 Image --
2007 3 28 00 -19.3 121.2 996 30 2 Image --
2007 3 28 06 -18.7 121.3 998 25 2 Image --
2007 3 28 12 -18.2 121.4 1000 25 2 Image --
2007 3 28 18 -17.9 121.5 1000 25 2 Image --
2007 3 29 00 -17.8 121.4 1000 25 2 Image --
2007 3 29 06 -17.8 121.3 1000 25 2 Image --
2007 3 29 12 -17.7 120.9 1000 25 2 Image --
2007 3 29 18 -17.5 120.5 1000 25 2 Image --
2007 3 30 00 -17.4 120.1 1000 25 2 Image --
< Cyclone 200712 2007 Season Cyclone 200716 >

Help